createdAt,value
2018-01-01T00:00:14.261Z,28.75
2018-01-01T00:00:45.857Z,34.67
2018-01-01T00:01:17.455Z,33.33
2018-01-01T00:01:49.013Z,35.42
2018-01-01T00:02:20.577Z,35.55
2018-01-01T00:02:52.143Z,47.25
2018-01-01T00:03:23.727Z,53.95
2018-01-01T00:03:55.522Z,46.03
2018-01-01T00:04:27.079Z,32.67
2018-01-01T00:04:58.655Z,39.85
2018-01-01T00:05:32.058Z,27.92
2018-01-01T00:06:40.061Z,30.65
2018-01-01T00:07:11.615Z,33.60
2018-01-01T00:07:43.187Z,30.50
2018-01-01T00:08:14.717Z,40.20
2018-01-01T00:08:46.265Z,31.20
2018-01-01T00:09:17.817Z,31.42
2018-01-01T00:09:49.366Z,32.97
2018-01-01T00:10:20.947Z,34.70
2018-01-01T00:10:52.501Z,27.27
2018-01-01T00:11:24.052Z,34.08
2018-01-01T00:11:55.625Z,37.13
2018-01-01T00:12:27.182Z,33.53
2018-01-01T00:12:58.741Z,33.03
2018-01-01T00:13:30.291Z,31.83
2018-01-01T00:14:41.124Z,35.50
2018-01-01T00:15:12.667Z,22.80
2018-01-01T00:15:44.270Z,33.60
2018-01-01T00:16:15.833Z,30.35
2018-01-01T00:16:47.383Z,25.75
2018-01-01T00:17:18.972Z,29.15
2018-01-01T00:17:50.520Z,29.15
2018-01-01T00:18:22.065Z,22.80
2018-01-01T00:18:53.789Z,20.95
2018-01-01T00:19:25.378Z,29.70
2018-01-01T00:19:56.922Z,17.95
2018-01-01T00:20:28.474Z,20.37
2018-01-01T00:21:00.143Z,19.95
2018-01-01T00:21:31.684Z,20.93
2018-01-01T00:22:03.241Z,27.60
2018-01-01T00:22:34.807Z,22.67
2018-01-01T00:23:06.345Z,31.98
2018-01-01T00:23:37.893Z,25.05
2018-01-01T00:24:09.449Z,23.00
2018-01-01T00:24:41.016Z,31.67
2018-01-01T00:25:12.565Z,34.75
2018-01-01T00:25:44.108Z,22.23
2018-01-01T00:26:15.675Z,20.30
2018-01-01T00:26:47.242Z,26.27
2018-01-01T00:27:18.797Z,23.15
2018-01-01T00:27:50.353Z,31.30
2018-01-01T00:28:21.949Z,24.45
2018-01-01T00:28:53.536Z,28.10
2018-01-01T00:29:25.100Z,28.77
2018-01-01T00:29:56.653Z,37.63
2018-01-01T00:30:28.204Z,29.10
2018-01-01T00:30:59.761Z,33.92
2018-01-01T00:31:31.323Z,33.92
2018-01-01T00:32:02.901Z,36.58
2018-01-01T00:32:34.477Z,37.83
2018-01-01T00:33:06.027Z,36.42
2018-01-01T00:33:37.581Z,33.60
2018-01-01T00:34:09.131Z,24.77
2018-01-01T00:34:40.695Z,24.23
2018-01-01T00:35:12.252Z,25.92
2018-01-01T00:35:43.832Z,21.80
2018-01-01T00:36:15.385Z,19.83
2018-01-01T00:36:46.969Z,26.52
2018-01-01T00:37:18.519Z,30.17
2018-01-01T00:37:50.074Z,24.23
2018-01-01T00:38:21.645Z,20.27
2018-01-01T00:38:53.205Z,26.58
2018-01-01T00:39:24.739Z,27.55
2018-01-01T00:39:56.285Z,25.30
2018-01-01T00:40:27.876Z,19.12
2018-01-01T00:40:59.419Z,18.12
2018-01-01T00:41:30.953Z,16.58
2018-01-01T00:42:02.514Z,18.58
2018-01-01T00:42:34.077Z,15.85
2018-01-01T00:43:05.645Z,24.58
2018-01-01T00:43:37.201Z,28.75
2018-01-01T00:44:08.817Z,19.95
2018-01-01T00:44:40.395Z,31.02
2018-01-01T00:45:11.946Z,21.55
2018-01-01T00:45:43.501Z,20.35
2018-01-01T00:46:15.064Z,19.55
2018-01-01T00:46:46.622Z,23.17
2018-01-01T00:47:18.183Z,21.20
2018-01-01T00:47:49.725Z,24.23
2018-01-01T00:48:21.267Z,18.48
2018-01-01T00:48:52.843Z,15.00
2018-01-01T00:49:24.377Z,21.48
2018-01-01T00:49:55.973Z,24.15
2018-01-01T00:50:27.509Z,16.87
2018-01-01T00:50:59.069Z,23.40
2018-01-01T00:51:30.643Z,21.75
2018-01-01T00:52:02.185Z,14.10
2018-01-01T00:52:33.725Z,23.55
2018-01-01T00:53:05.261Z,23.20
2018-01-01T00:53:36.792Z,22.10
2018-01-01T00:54:08.324Z,27.42
2018-01-01T00:54:39.861Z,19.73
2018-01-01T00:55:11.409Z,22.58
2018-01-01T00:55:42.950Z,25.27
2018-01-01T00:56:14.511Z,25.75
2018-01-01T00:56:46.057Z,28.27
2018-01-01T00:57:17.617Z,21.20
2018-01-01T00:57:49.173Z,22.10
2018-01-01T00:58:20.718Z,21.92
2018-01-01T00:58:52.261Z,24.37
2018-01-01T00:59:23.823Z,29.08
2018-01-01T00:59:55.364Z,26.77
2018-01-01T01:00:26.917Z,20.27
2018-01-01T01:00:58.459Z,19.48
2018-01-01T01:01:30.007Z,22.92
2018-01-01T01:02:01.565Z,20.30
2018-01-01T01:02:33.126Z,17.80
2018-01-01T01:03:04.696Z,18.67
2018-01-01T01:03:36.241Z,25.40
2018-01-01T01:04:07.852Z,26.33
2018-01-01T01:04:39.389Z,28.92
2018-01-01T01:05:10.948Z,18.92
2018-01-01T01:05:42.504Z,22.80
2018-01-01T01:06:14.073Z,21.77
2018-01-01T01:06:45.623Z,20.50
2018-01-01T01:07:17.194Z,28.40
2018-01-01T01:07:48.765Z,22.73
2018-01-01T01:08:20.326Z,28.05
2018-01-01T01:08:51.893Z,23.52
2018-01-01T01:09:23.477Z,31.20
2018-01-01T01:09:55.033Z,24.23
2018-01-01T01:10:26.572Z,27.90
2018-01-01T01:10:58.129Z,33.55
2018-01-01T01:11:29.688Z,33.80
2018-01-01T01:12:01.257Z,26.65
2018-01-01T01:12:32.823Z,30.48
2018-01-01T01:13:04.362Z,33.08
2018-01-01T01:13:35.929Z,21.83
2018-01-01T01:14:07.462Z,29.63
2018-01-01T01:14:39.033Z,24.00
2018-01-01T01:15:10.579Z,24.08
2018-01-01T01:15:42.131Z,25.95
2018-01-01T01:16:13.688Z,26.37
2018-01-01T01:16:45.237Z,30.17
2018-01-01T01:17:16.765Z,28.10
2018-01-01T01:17:48.313Z,25.17
2018-01-01T01:18:19.856Z,26.92
2018-01-01T01:18:51.435Z,39.72
2018-01-01T01:19:23.009Z,27.55
2018-01-01T01:19:54.567Z,36.85
2018-01-01T01:20:26.131Z,22.67
2018-01-01T01:20:57.667Z,26.58
2018-01-01T01:21:29.210Z,24.45
2018-01-01T01:22:00.754Z,30.85
2018-01-01T01:22:32.316Z,20.05
2018-01-01T01:23:03.867Z,20.45
2018-01-01T01:23:35.412Z,27.33
2018-01-01T01:24:06.982Z,28.65
2018-01-01T01:24:38.525Z,25.00
2018-01-01T01:25:10.081Z,25.50
2018-01-01T01:25:41.625Z,26.60
2018-01-01T01:26:13.173Z,25.33
2018-01-01T01:26:44.720Z,26.87
2018-01-01T01:27:16.275Z,33.45
2018-01-01T01:27:47.835Z,28.83
2018-01-01T01:28:19.390Z,28.25
2018-01-01T01:28:50.929Z,30.23
2018-01-01T01:29:22.497Z,26.10
2018-01-01T01:29:54.061Z,30.42
2018-01-01T01:30:25.616Z,36.90
2018-01-01T01:30:57.184Z,33.05
2018-01-01T01:31:28.739Z,31.70
2018-01-01T01:32:00.299Z,28.35
2018-01-01T01:32:31.841Z,36.88
2018-01-01T01:33:03.423Z,30.52
2018-01-01T01:33:34.977Z,29.42
2018-01-01T01:34:06.540Z,29.83
2018-01-01T01:34:38.082Z,27.92
2018-01-01T01:35:09.637Z,27.67
2018-01-01T01:35:41.185Z,25.65
2018-01-01T01:36:12.721Z,25.60
2018-01-01T01:36:44.289Z,27.85
2018-01-01T01:37:15.829Z,26.48
2018-01-01T01:37:47.372Z,28.50
2018-01-01T01:38:18.901Z,30.52
2018-01-01T01:38:50.452Z,30.45
2018-01-01T01:39:21.996Z,27.50
2018-01-01T01:39:53.556Z,24.73
2018-01-01T01:40:25.125Z,28.10
2018-01-01T01:40:56.738Z,28.87
2018-01-01T01:41:28.292Z,28.35
2018-01-01T01:41:59.869Z,34.88
2018-01-01T01:42:31.408Z,33.17
2018-01-01T01:43:02.979Z,30.70
2018-01-01T01:43:34.539Z,35.22
2018-01-01T01:44:06.096Z,31.52
2018-01-01T01:44:37.684Z,42.08
2018-01-01T01:45:09.221Z,31.67
2018-01-01T01:45:40.763Z,49.33
2018-01-01T01:46:12.329Z,30.85
2018-01-01T01:46:43.884Z,31.15
2018-01-01T01:47:15.445Z,34.95
2018-01-01T01:47:47.004Z,33.63
2018-01-01T01:48:18.563Z,36.50
2018-01-01T01:48:50.106Z,40.47
2018-01-01T01:49:21.669Z,35.65
2018-01-01T01:49:53.221Z,38.08
2018-01-01T01:50:24.793Z,30.80
2018-01-01T01:51:45.634Z,45.00
2018-01-01T01:52:17.171Z,37.95
2018-01-01T01:52:48.718Z,34.97
2018-01-01T01:53:20.265Z,30.85
2018-01-01T01:53:51.810Z,35.97
2018-01-01T01:54:23.357Z,38.00
2018-01-01T01:54:54.894Z,34.40
2018-01-01T01:55:26.449Z,30.85
2018-01-01T01:55:58.014Z,30.30
2018-01-01T01:56:29.553Z,35.30
2018-01-01T01:57:01.131Z,37.42
2018-01-01T01:57:32.681Z,26.02
2018-01-01T01:58:04.229Z,26.75
2018-01-01T01:58:35.785Z,18.90
2018-01-01T01:59:07.331Z,26.35
2018-01-01T01:59:38.883Z,22.77
2018-01-01T02:00:10.443Z,15.43
2018-01-01T02:00:42.031Z,23.23
2018-01-01T02:01:13.597Z,17.10
2018-01-01T02:01:45.133Z,15.48
2018-01-01T02:02:16.692Z,22.50
2018-01-01T02:02:48.238Z,18.02
2018-01-01T02:03:19.780Z,14.52
2018-01-01T02:03:51.328Z,23.83
2018-01-01T02:04:22.869Z,26.08
2018-01-01T02:04:54.445Z,23.85
2018-01-01T02:05:26.001Z,20.67
2018-01-01T02:05:57.569Z,19.25
2018-01-01T02:06:29.112Z,20.25
2018-01-01T02:07:00.662Z,20.55
2018-01-01T02:07:32.192Z,18.73
2018-01-01T02:08:03.715Z,21.35
2018-01-01T02:08:35.244Z,15.90
2018-01-01T02:09:06.801Z,21.20
2018-01-01T02:09:38.348Z,17.25
2018-01-01T02:10:09.889Z,27.25
2018-01-01T02:10:41.449Z,20.30
2018-01-01T02:11:13.027Z,24.87
2018-01-01T02:11:44.589Z,23.45
2018-01-01T02:12:16.164Z,24.52
2018-01-01T02:12:47.726Z,18.05
2018-01-01T02:13:19.265Z,20.58
2018-01-01T02:13:50.808Z,23.50
2018-01-01T02:14:22.395Z,23.55
2018-01-01T02:14:53.967Z,30.73
2018-01-01T02:15:25.532Z,19.48
2018-01-01T02:15:57.093Z,22.27
2018-01-01T02:16:28.651Z,22.73
2018-01-01T02:17:00.193Z,17.08
2018-01-01T02:17:31.742Z,22.87
2018-01-01T02:18:03.297Z,20.83
2018-01-01T02:18:34.837Z,20.75
2018-01-01T02:19:06.399Z,23.45
2018-01-01T02:19:37.977Z,20.25
2018-01-01T02:20:09.539Z,23.60
2018-01-01T02:20:41.111Z,16.05
2018-01-01T02:21:12.689Z,19.30
2018-01-01T02:21:44.320Z,16.80
2018-01-01T02:22:15.882Z,25.90
2018-01-01T02:22:47.420Z,15.95
2018-01-01T02:23:18.973Z,19.95
2018-01-01T02:23:50.503Z,17.98
2018-01-01T02:24:22.042Z,20.58
2018-01-01T02:24:53.587Z,11.55
2018-01-01T02:25:25.141Z,12.02
2018-01-01T02:25:56.687Z,9.90
2018-01-01T02:26:28.221Z,9.93
2018-01-01T02:26:59.789Z,19.15
2018-01-01T02:27:31.329Z,16.10
2018-01-01T02:28:02.889Z,11.68
2018-01-01T02:28:34.449Z,15.20
2018-01-01T02:29:06.001Z,17.12
2018-01-01T02:29:37.535Z,12.18
2018-01-01T02:30:09.091Z,18.08
2018-01-01T02:30:40.668Z,12.48
2018-01-01T02:31:12.225Z,11.95
2018-01-01T02:31:43.779Z,11.40
2018-01-01T02:32:31.892Z,13.02
2018-01-01T02:33:03.473Z,9.48
2018-01-01T02:33:35.041Z,8.25
2018-01-01T02:34:06.639Z,11.65
2018-01-01T02:34:38.226Z,8.30
2018-01-01T02:35:09.761Z,11.48
2018-01-01T02:35:41.315Z,14.10
2018-01-01T02:36:13.017Z,14.40
2018-01-01T02:36:44.577Z,11.77
2018-01-01T02:37:16.183Z,16.55
2018-01-01T02:37:47.729Z,14.60
2018-01-01T02:38:19.287Z,10.95
2018-01-01T02:38:50.836Z,11.18
2018-01-01T02:39:22.455Z,13.05
2018-01-01T02:39:54.031Z,18.48
2018-01-01T02:40:25.571Z,20.15
2018-01-01T02:40:57.133Z,17.17
2018-01-01T02:41:28.679Z,15.80
2018-01-01T02:42:00.249Z,14.27
2018-01-01T02:42:31.815Z,12.00
2018-01-01T02:43:03.394Z,14.20
2018-01-01T02:43:34.954Z,11.77
2018-01-01T02:44:06.509Z,15.95
2018-01-01T02:44:38.102Z,12.80
2018-01-01T02:45:09.663Z,10.95
2018-01-01T02:45:41.215Z,14.68
2018-01-01T02:46:12.799Z,17.27
2018-01-01T02:46:44.343Z,17.98
2018-01-01T02:47:15.901Z,11.55
2018-01-01T02:47:47.449Z,14.07
2018-01-01T02:48:18.990Z,17.42
2018-01-01T02:48:50.557Z,13.73
2018-01-01T02:49:22.097Z,11.57
2018-01-01T02:49:53.633Z,14.45
2018-01-01T02:50:25.182Z,16.27
2018-01-01T02:50:56.733Z,16.30
2018-01-01T02:51:28.281Z,15.30
2018-01-01T02:51:59.847Z,18.90
2018-01-01T02:52:31.400Z,13.02
2018-01-01T02:53:02.955Z,13.15
2018-01-01T02:53:34.504Z,20.92
2018-01-01T02:54:06.053Z,10.35
2018-01-01T02:54:37.600Z,12.13
2018-01-01T02:55:09.152Z,16.45
2018-01-01T02:55:40.709Z,14.68
2018-01-01T02:56:12.262Z,10.10
2018-01-01T02:56:44.378Z,10.32
2018-01-01T02:57:16.309Z,12.90
2018-01-01T02:57:47.877Z,13.00
2018-01-01T02:58:19.433Z,11.27
2018-01-01T02:58:51.019Z,12.93
2018-01-01T02:59:22.557Z,11.18
2018-01-01T02:59:54.119Z,12.68
2018-01-01T03:00:25.669Z,14.48
2018-01-01T03:00:57.219Z,10.88
2018-01-01T03:01:28.765Z,12.13
2018-01-01T03:02:00.321Z,15.63
2018-01-01T03:02:31.877Z,14.10
2018-01-01T03:03:03.443Z,17.15
2018-01-01T03:03:34.989Z,10.13
2018-01-01T03:04:06.547Z,14.43
2018-01-01T03:04:38.119Z,13.60
2018-01-01T03:05:09.649Z,15.90
2018-01-01T03:05:41.210Z,14.02
2018-01-01T03:06:12.842Z,12.93
2018-01-01T03:06:44.377Z,12.82
2018-01-01T03:07:15.941Z,8.02
2018-01-01T03:07:47.487Z,18.42
2018-01-01T03:08:19.053Z,17.67
2018-01-01T03:08:50.611Z,14.98
2018-01-01T03:09:22.187Z,14.05
2018-01-01T03:09:53.747Z,10.90
2018-01-01T03:10:25.289Z,20.33
2018-01-01T03:10:56.837Z,19.35
2018-01-01T03:11:28.369Z,8.90
2018-01-01T03:11:59.915Z,14.43
2018-01-01T03:12:31.475Z,19.27
2018-01-01T03:13:03.037Z,17.15
2018-01-01T03:13:34.575Z,16.80
2018-01-01T03:14:06.145Z,11.12
2018-01-01T03:14:37.697Z,18.87
2018-01-01T03:15:09.255Z,16.98
2018-01-01T03:15:40.813Z,14.65
2018-01-01T03:16:12.343Z,18.48
2018-01-01T03:16:43.882Z,9.95
2018-01-01T03:17:15.449Z,13.32
2018-01-01T03:17:47.013Z,18.23
2018-01-01T03:18:18.551Z,21.20
2018-01-01T03:18:50.098Z,13.82
2018-01-01T03:19:21.655Z,15.52
2018-01-01T03:19:53.205Z,15.13
2018-01-01T03:20:24.778Z,22.08
2018-01-01T03:20:56.329Z,17.30
2018-01-01T03:21:27.893Z,13.45
2018-01-01T03:21:59.437Z,12.35
2018-01-01T03:22:30.991Z,17.48
2018-01-01T03:23:02.532Z,16.55
2018-01-01T03:23:34.063Z,14.30
2018-01-01T03:24:05.615Z,13.80
2018-01-01T03:24:37.155Z,12.63
2018-01-01T03:25:08.705Z,10.38
2018-01-01T03:25:40.256Z,12.05
2018-01-01T03:26:11.809Z,11.65
2018-01-01T03:26:43.365Z,15.60
2018-01-01T03:27:14.901Z,15.60
2018-01-01T03:27:46.470Z,19.77
2018-01-01T03:28:18.045Z,14.07
2018-01-01T03:28:49.597Z,18.45
2018-01-01T03:29:21.161Z,13.43
2018-01-01T03:29:52.714Z,13.07
2018-01-01T03:30:24.284Z,17.85
2018-01-01T03:30:55.834Z,11.70
2018-01-01T03:31:27.375Z,18.17
2018-01-01T03:31:58.936Z,16.92
2018-01-01T03:32:30.500Z,11.90
2018-01-01T03:33:02.032Z,14.05
2018-01-01T03:33:33.593Z,16.37
2018-01-01T03:34:05.141Z,16.15
2018-01-01T03:34:36.693Z,16.35
2018-01-01T03:35:08.239Z,13.55
2018-01-01T03:35:39.799Z,12.10
2018-01-01T03:36:11.349Z,15.27
2018-01-01T03:36:42.904Z,12.30
2018-01-01T03:37:14.467Z,14.13
2018-01-01T03:37:46.005Z,12.77
2018-01-01T03:38:17.537Z,16.33
2018-01-01T03:38:49.079Z,19.30
2018-01-01T03:39:20.647Z,12.88
2018-01-01T03:39:52.188Z,13.32
2018-01-01T03:40:23.748Z,14.25
2018-01-01T03:40:55.309Z,12.40
2018-01-01T03:41:26.849Z,12.35
2018-01-01T03:41:58.408Z,13.00
2018-01-01T03:42:29.961Z,11.93
2018-01-01T03:43:01.507Z,11.93
2018-01-01T03:43:33.043Z,10.77
2018-01-01T03:44:04.595Z,11.82
2018-01-01T03:44:36.145Z,16.30
2018-01-01T03:45:07.689Z,10.70
2018-01-01T03:45:39.235Z,14.68
2018-01-01T03:46:10.801Z,11.07
2018-01-01T03:46:42.371Z,13.52
2018-01-01T03:47:13.928Z,14.70
2018-01-01T03:47:45.500Z,11.43
2018-01-01T03:48:17.066Z,14.15
2018-01-01T03:48:48.669Z,11.63
2018-01-01T03:49:20.256Z,12.15
2018-01-01T03:49:51.813Z,13.60
2018-01-01T03:50:23.389Z,20.20
2018-01-01T03:50:54.948Z,14.27
2018-01-01T03:51:26.509Z,19.67
2018-01-01T03:51:58.070Z,12.57
2018-01-01T03:52:29.629Z,12.50
2018-01-01T03:53:01.174Z,13.62
2018-01-01T03:53:32.745Z,12.82
2018-01-01T03:54:04.295Z,15.85
2018-01-01T03:54:35.851Z,12.23
2018-01-01T03:55:07.406Z,14.65
2018-01-01T03:55:38.971Z,15.13
2018-01-01T03:56:10.523Z,6.55
2018-01-01T03:56:42.115Z,11.38
2018-01-01T03:57:13.680Z,15.30
2018-01-01T03:57:45.255Z,14.13
2018-01-01T03:58:16.805Z,14.38
2018-01-01T03:58:48.372Z,12.15
2018-01-01T03:59:19.926Z,10.93
2018-01-01T03:59:51.471Z,11.52
2018-01-01T04:00:23.018Z,10.32
2018-01-01T04:00:54.573Z,12.80
2018-01-01T04:01:26.109Z,12.35
2018-01-01T04:01:57.672Z,15.30
2018-01-01T04:02:29.227Z,12.45
2018-01-01T04:03:00.787Z,10.43
2018-01-01T04:03:32.366Z,12.77
2018-01-01T04:04:03.923Z,11.82
2018-01-01T04:04:35.475Z,10.43
2018-01-01T04:05:07.054Z,11.48
2018-01-01T04:05:38.617Z,12.10
2018-01-01T04:06:10.181Z,13.05
2018-01-01T04:06:41.745Z,14.55
2018-01-01T04:07:13.321Z,13.60
2018-01-01T04:07:44.859Z,15.80
2018-01-01T04:08:16.409Z,15.13
2018-01-01T04:08:47.961Z,9.63
2018-01-01T04:09:19.507Z,12.80
2018-01-01T04:09:51.065Z,17.02
2018-01-01T04:10:22.609Z,19.03
2018-01-01T04:10:54.165Z,12.02
2018-01-01T04:11:25.715Z,16.12
2018-01-01T04:11:57.267Z,10.15
2018-01-01T04:12:28.813Z,15.88
2018-01-01T04:13:00.351Z,13.98
2018-01-01T04:13:31.901Z,15.07
2018-01-01T04:14:03.447Z,14.07
2018-01-01T04:14:35.011Z,7.82
2018-01-01T04:15:06.575Z,16.85
2018-01-01T04:15:38.115Z,12.60
2018-01-01T04:16:09.693Z,11.93
2018-01-01T04:16:41.247Z,9.18
2018-01-01T04:17:12.805Z,11.88
2018-01-01T04:17:44.361Z,13.18
2018-01-01T04:18:15.921Z,15.63
2018-01-01T04:18:47.485Z,13.38
2018-01-01T04:19:19.027Z,9.10
2018-01-01T04:19:50.579Z,9.85
2018-01-01T04:20:22.145Z,13.25
2018-01-01T04:20:53.715Z,7.45
2018-01-01T04:21:25.251Z,9.82
2018-01-01T04:21:56.795Z,15.80
2018-01-01T04:22:28.337Z,13.45
2018-01-01T04:22:59.901Z,14.48
2018-01-01T04:23:31.457Z,20.60
2018-01-01T04:24:03.017Z,12.40
2018-01-01T04:24:34.574Z,12.18
2018-01-01T04:25:06.121Z,10.38
2018-01-01T04:25:37.681Z,14.85
2018-01-01T04:26:09.233Z,7.93
2018-01-01T04:26:40.775Z,10.63
2018-01-01T04:27:12.315Z,9.55
2018-01-01T04:27:43.872Z,11.63
2018-01-01T04:28:15.431Z,14.77
2018-01-01T04:28:46.989Z,12.20
2018-01-01T04:29:18.531Z,9.90
2018-01-01T04:29:50.091Z,12.57
2018-01-01T04:30:21.659Z,12.35
2018-01-01T04:30:53.213Z,15.63
2018-01-01T04:31:24.781Z,10.32
2018-01-01T04:31:56.469Z,11.25
2018-01-01T04:32:28.023Z,12.73
2018-01-01T04:32:59.567Z,14.02
2018-01-01T04:33:31.128Z,13.20
2018-01-01T04:34:02.680Z,13.10
2018-01-01T04:34:34.242Z,17.17
2018-01-01T04:35:05.853Z,10.15
2018-01-01T04:35:37.429Z,15.48
2018-01-01T04:36:08.980Z,10.73
2018-01-01T04:36:40.523Z,15.18
2018-01-01T04:37:12.081Z,12.23
2018-01-01T04:37:43.637Z,19.10
2018-01-01T04:38:15.182Z,12.90
2018-01-01T04:38:46.747Z,15.57
2018-01-01T04:39:18.317Z,12.23
2018-01-01T04:39:49.885Z,12.50
2018-01-01T04:40:21.440Z,17.58
2018-01-01T04:40:52.999Z,10.82
2018-01-01T04:41:24.547Z,13.05
2018-01-01T04:41:56.104Z,11.60
2018-01-01T04:42:27.663Z,12.05
2018-01-01T04:42:59.213Z,14.40
2018-01-01T04:43:30.759Z,13.48
2018-01-01T04:44:02.325Z,10.90
2018-01-01T04:44:33.889Z,8.50
2018-01-01T04:45:05.477Z,11.35
2018-01-01T04:45:37.030Z,10.10
2018-01-01T04:46:08.573Z,14.00
2018-01-01T04:46:40.139Z,13.52
2018-01-01T04:47:11.679Z,14.98
2018-01-01T04:47:43.262Z,15.82
2018-01-01T04:48:14.810Z,12.80
2018-01-01T04:48:46.382Z,13.25
2018-01-01T04:49:17.947Z,15.75
2018-01-01T04:49:49.523Z,16.27
2018-01-01T04:50:21.103Z,13.30
2018-01-01T04:50:52.631Z,12.00
2018-01-01T04:51:24.173Z,12.80
2018-01-01T04:51:55.725Z,6.97
2018-01-01T04:52:27.299Z,14.57
2018-01-01T04:52:58.858Z,14.70
2018-01-01T04:53:30.421Z,12.50
2018-01-01T04:54:01.975Z,9.25
2018-01-01T04:54:33.528Z,10.23
2018-01-01T04:55:05.099Z,9.48
2018-01-01T04:55:36.647Z,13.18
2018-01-01T04:56:08.209Z,11.77
2018-01-01T04:56:39.763Z,8.98
2018-01-01T04:57:11.339Z,12.35
2018-01-01T04:57:42.876Z,11.07
2018-01-01T04:58:14.437Z,12.20
2018-01-01T04:58:45.991Z,15.82
2018-01-01T04:59:17.551Z,14.20
2018-01-01T04:59:49.115Z,12.40
2018-01-01T05:00:20.695Z,9.27
2018-01-01T05:00:52.276Z,11.02
2018-01-01T05:01:23.867Z,11.05
2018-01-01T05:01:55.577Z,13.45
2018-01-01T05:02:27.146Z,13.48
2018-01-01T05:02:58.697Z,11.48
2018-01-01T05:03:30.255Z,12.65
2018-01-01T05:04:01.802Z,12.85
2018-01-01T05:04:33.337Z,13.77
2018-01-01T05:05:04.893Z,14.15
2018-01-01T05:05:36.439Z,10.05
2018-01-01T05:06:07.991Z,11.32
2018-01-01T05:06:39.537Z,14.43
2018-01-01T05:07:11.093Z,22.10
2018-01-01T05:07:42.659Z,15.40
2018-01-01T05:08:14.211Z,14.10
2018-01-01T05:08:45.773Z,12.88
2018-01-01T05:09:17.307Z,14.70
2018-01-01T05:09:48.845Z,19.52
2018-01-01T05:10:20.395Z,12.20
2018-01-01T05:10:51.967Z,16.55
2018-01-01T05:11:23.527Z,16.98
2018-01-01T05:11:55.059Z,9.25
2018-01-01T05:12:26.608Z,12.88
2018-01-01T05:12:58.167Z,11.00
2018-01-01T05:13:29.739Z,14.85
2018-01-01T05:14:01.283Z,11.00
2018-01-01T05:14:32.839Z,14.93
2018-01-01T05:15:04.376Z,17.20
2018-01-01T05:15:35.925Z,12.30
2018-01-01T05:16:07.473Z,10.40
2018-01-01T05:16:39.019Z,11.35
2018-01-01T05:17:10.545Z,8.70
2018-01-01T05:17:42.085Z,14.35
2018-01-01T05:18:13.639Z,11.82
2018-01-01T05:18:45.217Z,10.60
2018-01-01T05:19:16.771Z,12.75
2018-01-01T05:19:48.325Z,14.40
2018-01-01T05:20:19.877Z,12.43
2018-01-01T05:20:51.458Z,11.95
2018-01-01T05:21:22.997Z,14.02
2018-01-01T05:21:54.541Z,12.82
2018-01-01T05:22:26.097Z,15.57
2018-01-01T05:22:57.638Z,13.88
2018-01-01T05:23:29.188Z,13.88
2018-01-01T05:24:00.741Z,19.30
2018-01-01T05:24:32.298Z,13.88
2018-01-01T05:25:03.839Z,16.75
2018-01-01T05:25:35.391Z,16.15
2018-01-01T05:26:06.951Z,11.98
2018-01-01T05:26:38.505Z,17.23
2018-01-01T05:27:10.049Z,11.30
2018-01-01T05:27:41.607Z,12.63
2018-01-01T05:28:13.133Z,16.95
2018-01-01T05:28:44.699Z,12.75
2018-01-01T05:29:16.237Z,12.63
2018-01-01T05:29:47.776Z,17.48
2018-01-01T05:30:19.309Z,13.75
2018-01-01T05:30:50.847Z,12.40
2018-01-01T05:31:22.389Z,13.25
2018-01-01T05:31:54.013Z,16.23
2018-01-01T05:32:25.575Z,9.77
2018-01-01T05:32:57.142Z,10.07
2018-01-01T05:33:28.706Z,11.27
2018-01-01T05:34:00.252Z,10.25
2018-01-01T05:34:31.824Z,11.43
2018-01-01T05:35:03.375Z,18.37
2018-01-01T05:35:34.933Z,13.15
2018-01-01T05:36:06.479Z,14.25
2018-01-01T05:36:38.047Z,12.18
2018-01-01T05:37:09.595Z,11.60
2018-01-01T05:37:41.147Z,15.90
2018-01-01T05:38:12.691Z,11.85
2018-01-01T05:38:44.227Z,11.57
2018-01-01T05:39:15.785Z,13.05
2018-01-01T05:39:47.342Z,11.27
2018-01-01T05:40:18.891Z,13.05
2018-01-01T05:40:50.445Z,12.25
2018-01-01T05:41:21.993Z,13.18
2018-01-01T05:41:53.573Z,10.52
2018-01-01T05:42:25.127Z,11.23
2018-01-01T05:42:56.681Z,8.13
2018-01-01T05:43:28.237Z,11.55
2018-01-01T05:43:59.793Z,9.35
2018-01-01T05:44:31.360Z,9.02
2018-01-01T05:45:02.929Z,12.27
2018-01-01T05:45:34.508Z,12.60
2018-01-01T05:46:06.053Z,13.73
2018-01-01T05:46:37.583Z,14.40
2018-01-01T05:47:09.126Z,14.85
2018-01-01T05:47:40.655Z,14.15
2018-01-01T05:48:12.194Z,8.60
2018-01-01T05:48:43.741Z,15.38
2018-01-01T05:49:15.293Z,10.45
2018-01-01T05:49:46.821Z,11.77
2018-01-01T05:50:18.357Z,15.32
2018-01-01T05:50:49.895Z,12.80
2018-01-01T05:51:21.421Z,8.77
2018-01-01T05:51:52.965Z,12.07
2018-01-01T05:52:24.515Z,11.02
2018-01-01T05:52:56.077Z,8.90
2018-01-01T05:53:27.605Z,9.35
2018-01-01T05:53:59.187Z,14.87
2018-01-01T05:54:30.714Z,14.05
2018-01-01T05:55:02.267Z,11.98
2018-01-01T05:55:33.809Z,14.35
2018-01-01T05:56:05.339Z,17.98
2018-01-01T05:56:36.910Z,14.50
2018-01-01T05:57:08.481Z,16.37
2018-01-01T05:57:40.047Z,11.12
2018-01-01T05:58:11.585Z,9.73
2018-01-01T05:58:43.141Z,11.23
2018-01-01T05:59:14.689Z,14.57
2018-01-01T05:59:46.231Z,9.85
2018-01-01T06:00:17.779Z,11.88
2018-01-01T06:00:49.356Z,12.80
2018-01-01T06:01:20.909Z,15.50
2018-01-01T06:01:52.449Z,13.07
2018-01-01T06:02:24.005Z,11.60
2018-01-01T06:02:55.591Z,12.23
2018-01-01T06:03:27.145Z,8.27
2018-01-01T06:03:58.700Z,11.50
2018-01-01T06:04:30.246Z,11.05
2018-01-01T06:05:01.799Z,11.85
2018-01-01T06:05:33.349Z,11.30
2018-01-01T06:06:04.901Z,10.18
2018-01-01T06:06:36.441Z,6.65
2018-01-01T06:07:08.061Z,13.98
2018-01-01T06:07:39.597Z,12.88
2018-01-01T06:08:11.165Z,16.45
2018-01-01T06:08:42.717Z,11.08
2018-01-01T06:09:14.293Z,17.58
2018-01-01T06:09:45.840Z,16.17
2018-01-01T06:10:17.389Z,11.35
2018-01-01T06:15:40.913Z,11.00
2018-01-01T06:16:12.463Z,10.98
2018-01-01T06:16:44.011Z,12.32
2018-01-01T06:17:15.559Z,12.60
2018-01-01T06:17:47.103Z,15.07
2018-01-01T06:18:18.673Z,14.30
2018-01-01T06:18:50.217Z,7.82
2018-01-01T06:19:21.768Z,13.62
2018-01-01T06:19:53.314Z,26.37
2018-01-01T06:20:24.865Z,13.23
2018-01-01T06:20:56.427Z,20.20
2018-01-01T06:21:27.965Z,14.75
2018-01-01T06:21:59.539Z,11.88
2018-01-01T06:22:31.097Z,10.00
2018-01-01T06:23:02.647Z,18.75
2018-01-01T06:23:34.189Z,13.82
2018-01-01T06:24:05.729Z,9.93
2018-01-01T06:24:37.279Z,12.57
2018-01-01T06:25:08.816Z,19.80
2018-01-01T06:25:40.367Z,10.65
2018-01-01T06:26:11.912Z,16.33
2018-01-01T06:26:43.473Z,14.20
2018-01-01T06:27:15.015Z,13.43
2018-01-01T06:27:46.577Z,13.68
2018-01-01T06:28:18.115Z,15.02
2018-01-01T06:28:49.659Z,14.20
2018-01-01T06:29:21.221Z,14.57
2018-01-01T06:29:52.749Z,19.30
2018-01-01T06:30:24.291Z,11.10
2018-01-01T06:30:55.818Z,10.02
2018-01-01T06:31:27.373Z,15.70
2018-01-01T06:31:58.930Z,15.50
2018-01-01T06:32:30.472Z,17.37
2018-01-01T06:33:02.007Z,13.48
2018-01-01T06:33:33.560Z,12.25
2018-01-01T06:34:05.115Z,13.18
2018-01-01T06:34:36.650Z,15.95
2018-01-01T06:35:08.191Z,15.05
2018-01-01T06:35:39.765Z,13.55
2018-01-01T06:36:11.370Z,16.92
2018-01-01T06:36:42.913Z,13.52
2018-01-01T06:37:14.453Z,16.77
2018-01-01T06:37:45.981Z,12.20
2018-01-01T06:38:17.509Z,10.95
2018-01-01T06:38:49.077Z,16.25
2018-01-01T06:39:20.604Z,12.20
2018-01-01T06:39:52.153Z,18.12
2018-01-01T06:40:23.704Z,15.30
2018-01-01T06:40:55.257Z,13.30
2018-01-01T06:41:26.793Z,18.20
2018-01-01T06:41:58.364Z,18.42
2018-01-01T06:42:29.977Z,16.45
2018-01-01T06:43:01.508Z,15.18
2018-01-01T06:43:33.063Z,21.15
2018-01-01T06:44:04.628Z,16.27
2018-01-01T06:44:36.173Z,24.37
2018-01-01T06:45:07.736Z,17.55
2018-01-01T06:45:39.294Z,14.70
2018-01-01T06:46:10.833Z,15.77
2018-01-01T06:46:42.381Z,15.80
2018-01-01T06:47:13.954Z,17.83
2018-01-01T06:47:45.503Z,12.20
2018-01-01T06:48:17.039Z,14.93
2018-01-01T06:48:48.585Z,18.17
2018-01-01T06:49:20.127Z,12.23
2018-01-01T06:49:51.686Z,23.67
2018-01-01T06:50:23.237Z,14.45
2018-01-01T06:50:54.765Z,17.30
2018-01-01T06:51:26.305Z,16.77
2018-01-01T06:51:57.852Z,16.05
2018-01-01T06:52:29.417Z,16.58
2018-01-01T06:53:00.955Z,18.10
2018-01-01T06:53:32.489Z,13.85
2018-01-01T06:54:04.025Z,15.35
2018-01-01T06:54:35.582Z,19.05